KWJF/WJF METAR and TAF weather

Enter ICAO airport designator
Station Type Date Time Source
KWJF METAR 2020/01/23 20:56 UTC NOAA

KWJF 232056Z 09004KT 10SM CLR 16/04 A3017 RMK AO2 SLP220 T01610044 58034


Station Type Date Time Source
KWJF Decoded METAR 2020/01/23 20:56 UTC NOAA

LANCASTER FOX AIRFIELD, CA, United States (KWJF) 34-44N 118-13W
Jan 23, 2020 - 03:56 PM EST / 2020.01.23 2056 UTC
Wind: from the E (090 degrees) at 5 MPH (4 KT):0
Visibility: 10 mile(s):0
Sky conditions: clear
Temperature: 61.0 F (16.1 C)
Dew Point: 39.9 F (4.4 C)
Relative Humidity: 45%
Pressure (altimeter): 30.17 in. Hg (1021 hPa)
Pressure tendency: 0.10 inches (3.4 hPa) lower than three hours ago
ob: KWJF 232056Z 09004KT 10SM CLR 16/04 A3017 RMK AO2 SLP220 T01610044 58034
cycle: 21

Station Type Date Time Source
KWJF TAF 2020/01/23 18:36 UTC NOAA

TAF KWJF 231733Z 2318/2418 00000KT P6SM SCT250
FM231900 04007KT P6SM SCT250
FM240500 28005KT P6SM BKN250

Example: see airport list